Time;durP1;ratioP1;P1;durP2;ratioP2;P2;SDS_P1;SDS_P2;PMS_P1;PMS_P2;Temp;Humidity;BMP_temperature;BMP_pressure;BME280_temperature;BME280_humidity;BME280_pressure;Samples;Min_cycle;Max_cycle;Signal;HPM_P1;HPM_P2
2022/08/31 00:07:30;;;;;;;;;;;;;;;;;;10500851;28;19924;-67
2022/08/31 00:12:32;;;;;;;;;;;;;;;;;;10499703;28;19925;-66
2022/08/31 00:17:34;;;;;;;;;;;;;;;;;;10500842;28;19925;-67
2022/08/31 00:22:37;;;;;;;;;;;;;;;;;;10500201;28;19925;-67
2022/08/31 00:27:39;;;;;;;;;;;;;;;;;;10500058;28;19924;-66
2022/08/31 00:32:41;;;;;;;;;;;;;;;;;;10500389;28;19924;-67
2022/08/31 00:37:43;;;;;;;;;;;;;;;;;;10498155;28;19924;-66
2022/08/31 00:42:45;;;;;;;;;;;;;;;;;;10499600;28;19925;-66
2022/08/31 00:47:47;;;;;;;;;;;;;;;;;;10498852;28;19925;-67
2022/08/31 00:52:50;;;;;;;;;;;;;;;;;;10500065;28;19925;-66
2022/08/31 00:57:52;;;;;;;;;;;;;;;;;;10498394;28;20283;-66
2022/08/31 01:02:54;;;;;;;;;;;;;;;;;;10499653;28;19925;-66
2022/08/31 01:07:56;;;;;;;;;;;;;;;;;;10498843;28;19924;-66
2022/08/31 01:12:58;;;;;;;;;;;;;;;;;;10499461;28;19956;-66
2022/08/31 01:18:00;;;;;;;;;;;;;;;;;;10495885;28;20407;-66
2022/08/31 01:23:02;;;;;;;;;;;;;;;;;;10498823;28;19931;-66
2022/08/31 01:28:04;;;;;;;;;;;;;;;;;;10496796;28;20287;-66
2022/08/31 01:33:06;;;;;;;;;;;;;;;;;;10496448;28;20331;-66
2022/08/31 01:38:09;;;;;;;;;;;;;;;;;;10497128;28;19929;-66
2022/08/31 01:43:11;;;;;;;;;;;;;;;;;;10498672;28;19928;-66
2022/08/31 01:48:13;;;;;;;;;;;;;;;;;;10495364;28;19925;-66
2022/08/31 01:53:16;;;;;;;;;;;;;;;;;;10497972;28;19924;-67
2022/08/31 01:58:18;;;;;;;;;;;;;;;;;;10497976;28;19924;-66
2022/08/31 02:03:20;;;;;;;;;;;;;;;;;;10498326;28;19932;-66
2022/08/31 02:08:22;;;;;;;;;;;;;;;;;;10496400;28;19924;-66
2022/08/31 02:13:24;;;;;;;;;;;;;;;;;;10498198;28;19925;-66
2022/08/31 02:18:27;;;;;;;;;;;;;;;;;;10496696;28;20291;-66
2022/08/31 02:23:29;;;;;;;;;;;;;;;;;;10497267;28;20387;-66
2022/08/31 02:28:31;;;;;;;;;;;;;;;;;;10493419;28;19929;-66
2022/08/31 02:33:33;;;;;;;;;;;;;;;;;;10494992;28;19924;-66
2022/08/31 02:38:35;;;;;;;;;;;;;;;;;;10504852;28;19925;-66
2022/08/31 02:43:37;;;;;;;;;;;;;;;;;;10505122;28;19931;-66
2022/08/31 02:48:39;;;;;;;;;;;;;;;;;;10501824;28;20293;-66
2022/08/31 02:53:41;;;;;;;;;;;;;;;;;;10504153;28;20389;-66
2022/08/31 02:58:43;;;;;;;;;;;;;;;;;;10500950;28;19924;-66
2022/08/31 03:03:45;;;;;;;;;;;;;;;;;;10504478;28;19924;-66
2022/08/31 03:08:49;;;;;;;;;;;;;;;;;;10501959;28;19970;-66
2022/08/31 03:13:51;;;;;;;;;;;;;;;;;;10504074;28;19935;-66
2022/08/31 03:18:58;;;;;;;;;;;;;;;;;;10503242;28;19929;-66
2022/08/31 03:24:00;;;;;;;;;;;;;;;;;;10503636;28;19931;-65
2022/08/31 03:29:02;;;;;;;;;;;;;;;;;;10501084;28;20398;-65
2022/08/31 03:34:04;;;;;;;;;;;;;;;;;;10500854;28;19932;-66
2022/08/31 03:39:06;;;;;;;;;;;;;;;;;;10502215;28;19930;-66
2022/08/31 03:44:09;;;;;;;;;;;;;;;;;;10501399;28;20397;-66
2022/08/31 03:49:11;;;;;;;;;;;;;;;;;;10499515;28;20406;-65
2022/08/31 03:54:13;;;;;;;;;;;;;;;;;;10501869;28;19936;-65
2022/08/31 03:59:15;;;;;;;;;;;;;;;;;;10501548;28;19929;-65
2022/08/31 04:04:17;;;;;;;;;;;;;;;;;;10501337;28;20367;-65
2022/08/31 04:09:19;;;;;;;;;;;;;;;;;;10498331;28;19924;-65
2022/08/31 04:14:22;;;;;;;;;;;;;;;;;;10500993;28;20287;-65
2022/08/31 04:19:24;;;;;;;;;;;;;;;;;;10499634;28;20360;-65
2022/08/31 04:24:26;;;;;;;;;;;;;;;;;;10500468;28;20363;-66
2022/08/31 04:29:28;;;;;;;;;;;;;;;;;;10499500;28;19924;-65
2022/08/31 04:34:30;;;;;;;;;;;;;;;;;;10499955;28;19924;-65
2022/08/31 04:39:32;;;;;;;;;;;;;;;;;;10459272;28;19932;-65
2022/08/31 04:44:34;;;;;;;;;;;;;;;;;;10470356;22;19924;-65
2022/08/31 04:49:36;;;;;;;;;;;;;;;;;;10499571;28;19932;-65
2022/08/31 04:54:39;;;;;;;;;;;;;;;;;;10499212;28;19925;-65
2022/08/31 04:59:41;;;;;;;;;;;;;;;;;;10498620;28;19931;-65
2022/08/31 05:04:43;;;;;;;;;;;;;;;;;;10498055;28;19928;-65
2022/08/31 05:09:45;;;;;;;;;;;;;;;;;;10497884;28;19924;-65
2022/08/31 05:14:47;;;;;;;;;;;;;;;;;;10498404;28;19925;-65
2022/08/31 05:19:49;;;;;;;;;;;;;;;;;;10499345;28;19931;-65
2022/08/31 05:24:51;;;;;;;;;;;;;;;;;;10498233;28;19925;-65
2022/08/31 05:29:53;;;;;;;;;;;;;;;;;;10497691;28;20386;-65
2022/08/31 05:34:55;;;;;;;;;;;;;;;;;;10497201;28;19934;-65
2022/08/31 05:39:57;;;;;;;;;;;;;;;;;;10497660;28;19935;-65
2022/08/31 05:44:59;;;;;;;;;;;;;;;;;;10509694;28;20007;-66
2022/08/31 05:50:01;;;;;;;;;;;;;;;;;;10505972;28;19924;-66
2022/08/31 05:55:04;;;;;;;;;;;;;;;;;;10492866;28;19931;-66
2022/08/31 06:00:06;;;;;;;;;;;;;;;;;;10531968;28;19932;-65
2022/08/31 06:05:08;;;;;;;;;;;;;;;;;;10498370;28;19925;-66
2022/08/31 06:10:10;;;;;;;;;;;;;;;;;;10501923;28;19931;-65
2022/08/31 06:15:12;;;;;;;;;;;;;;;;;;10537469;28;19924;-65
2022/08/31 06:20:16;;;;;;;;;;;;;;;;;;10548161;28;19924;-65
2022/08/31 06:25:18;;;;;;;;;;;;;;;;;;10547211;28;20436;-66
2022/08/31 06:30:25;;;;;;;;;;;;;;;;;;10506573;28;19931;-66
2022/08/31 06:35:28;;;;;;;;;;;;;;;;;;10502531;28;19928;-66
2022/08/31 06:40:30;;;;;;;;;;;;;;;;;;10501678;28;19924;-66
2022/08/31 06:45:32;;;;;;;;;;;;;;;;;;10503637;28;19928;-65
2022/08/31 06:50:35;;;;;;;;;;;;;;;;;;10500975;28;19925;-66
2022/08/31 06:55:37;;;;;;;;;;;;;;;;;;10522410;28;19930;-65
2022/08/31 07:00:39;;;;;;;;;;;;;;;;;;10518897;28;19925;-65
2022/08/31 07:05:41;;;;;;;;;;;;;;;;;;10495570;28;19932;-65
2022/08/31 07:10:44;;;;;;;;;;;;;;;;;;10480459;28;19928;-66
2022/08/31 07:15:46;;;;;;;;;;;;;;;;;;10500054;28;19936;-66
2022/08/31 07:20:48;;;;;;;;;;;;;;;;;;10499833;28;20399;-66
2022/08/31 07:25:50;;;;;;;;;;;;;;;;;;10502140;28;19929;-66
2022/08/31 07:30:52;;;;;;;;;;;;;;;;;;10500259;28;19931;-66
2022/08/31 07:35:54;;;;;;;;;;;;;;;;;;10500765;28;19928;-66
2022/08/31 07:46:17;;;;;;;;;;;;;;;;;;10500160;28;20291;-66
2022/08/31 07:51:22;;;;;;;;;;;;;;;;;;10500069;28;19925;-66
2022/08/31 07:56:24;;;;;;;;;;;;;;;;;;10499937;28;19935;-66
2022/08/31 08:01:30;;;;;;;;;;;;;;;;;;10500071;28;20371;-66
2022/08/31 08:06:33;;;;;;;;;;;;;;;;;;10499509;28;19928;-66
2022/08/31 08:11:38;;;;;;;;;;;;;;;;;;10500304;28;19925;-66
2022/08/31 08:16:40;;;;;;;;;;;;;;;;;;10482483;28;19925;-66
2022/08/31 08:21:42;;;;;;;;;;;;;;;;;;10498810;28;19993;-67
2022/08/31 08:26:44;;;;;;;;;;;;;;;;;;10498604;28;19924;-66
2022/08/31 08:31:51;;;;;;;;;;;;;;;;;;10495714;28;19932;-67
2022/08/31 08:36:54;;;;;;;;;;;;;;;;;;10497870;28;19928;-67
2022/08/31 08:41:59;;;;;;;;;;;;;;;;;;10498806;28;19924;-67
2022/08/31 08:47:01;;;;;;;;;;;;;;;;;;10498340;28;19925;-67
2022/08/31 08:52:04;;;;;;;;;;;;;;;;;;10495678;28;20302;-67
2022/08/31 08:57:06;;;;;;;;;;;;;;;;;;10499255;28;19924;-67
2022/08/31 09:02:09;;;;;;;;;;;;;;;;;;10500249;28;19924;-67
2022/08/31 09:07:11;;;;;;;;;;;;;;;;;;10499068;28;19928;-67
2022/08/31 09:12:17;;;;;;;;;;;;;;;;;;10497870;28;19928;-67
2022/08/31 09:17:23;;;;;;;;;;;;;;;;;;10496771;28;19982;-67
2022/08/31 09:22:25;;;;;;;;;;;;;;;;;;10498579;28;20394;-67
2022/08/31 09:27:30;;;;;;;;;;;;;;;;;;10499131;28;19925;-68
2022/08/31 09:32:33;;;;;;;;;;;;;;;;;;10498062;28;19932;-68
2022/08/31 09:37:53;;;;;;;;;;;;;;;;;;10498927;28;19925;-68
2022/08/31 09:42:56;;;;;;;;;;;;;;;;;;10497575;28;19928;-68
2022/08/31 09:48:00;;;;;;;;;;;;;;;;;;10472924;28;19924;-69
2022/08/31 09:58:24;;;;;;;;;;;;;;;;;;10493357;28;19924;-68
2022/08/31 10:03:28;;;;;;;;;;;;;;;;;;10465092;28;19932;-69
2022/08/31 10:08:30;;;;;;;;;;;;;;;;;;10466421;28;20379;-69
2022/08/31 10:13:33;;;;;;;;;;;;;;;;;;10497573;28;20276;-70
2022/08/31 10:18:38;;;;;;;;;;;;;;;;;;10481092;28;19925;-69
2022/08/31 10:23:52;;;;;;;;;;;;;;;;;;10465080;28;20366;-69
2022/08/31 10:28:54;;;;;;;;;;;;;;;;;;10490840;28;19932;-69
2022/08/31 10:39:17;;;;;;;;;;;;;;;;;;10495943;28;19932;-69
2022/08/31 10:44:23;;;;;;;;;;;;;;;;;;10496833;28;19932;-68
2022/08/31 10:49:25;;;;;;;;;;;;;;;;;;10497433;28;19925;-69
2022/08/31 10:54:27;;;;;;;;;;;;;;;;;;10494630;28;19952;-69
2022/08/31 10:59:29;;;;;;;;;;;;;;;;;;10488813;28;19925;-69
2022/08/31 11:04:33;;;;;;;;;;;;;;;;;;10463188;28;19931;-69
2022/08/31 11:09:35;;;;;;;;;;;;;;;;;;10462897;28;19925;-70
2022/08/31 11:14:44;;;;;;;;;;;;;;;;;;10462773;28;19924;-69
2022/08/31 11:19:49;;;;;;;;;;;;;;;;;;10456294;28;19935;-69
2022/08/31 11:24:51;;;;;;;;;;;;;;;;;;10455386;28;19929;-69
2022/08/31 11:29:55;;;;;;;;;;;;;;;;;;10454608;28;20281;-69
2022/08/31 11:34:57;;;;;;;;;;;;;;;;;;10454359;28;19928;-69
2022/08/31 11:39:59;;;;;;;;;;;;;;;;;;10454232;28;20307;-70
2022/08/31 11:45:02;;;;;;;;;;;;;;;;;;10453979;28;20273;-69
2022/08/31 11:50:04;;;;;;;;;;;;;;;;;;10454654;28;19932;-69
2022/08/31 11:55:07;;;;;;;;;;;;;;;;;;10454311;28;19932;-70
2022/08/31 12:00:09;;;;;;;;;;;;;;;;;;10454075;28;19929;-69
2022/08/31 12:05:11;;;;;;;;;;;;;;;;;;10453184;28;19932;-69
2022/08/31 12:10:14;;;;;;;;;;;;;;;;;;10453396;28;19939;-70
2022/08/31 12:15:16;;;;;;;;;;;;;;;;;;10452942;28;19929;-69
2022/08/31 12:20:18;;;;;;;;;;;;;;;;;;10452543;28;19928;-70
2022/08/31 12:25:21;;;;;;;;;;;;;;;;;;10452495;28;20394;-69
2022/08/31 12:30:23;;;;;;;;;;;;;;;;;;10452436;28;20374;-70
2022/08/31 12:35:25;;;;;;;;;;;;;;;;;;10452487;28;19925;-70
2022/08/31 12:40:27;;;;;;;;;;;;;;;;;;10451634;28;19947;-69
2022/08/31 12:45:29;;;;;;;;;;;;;;;;;;10490551;28;19963;-69
2022/08/31 12:50:31;;;;;;;;;;;;;;;;;;10491822;28;19929;-70
2022/08/31 12:55:33;;;;;;;;;;;;;;;;;;10497613;28;20367;-69
2022/08/31 13:00:38;;;;;;;;;;;;;;;;;;10497702;28;20383;-69
2022/08/31 13:05:40;;;;;;;;;;;;;;;;;;10498810;28;19924;-69
2022/08/31 13:10:42;;;;;;;;;;;;;;;;;;10498975;28;19924;-70
2022/08/31 13:15:44;;;;;;;;;;;;;;;;;;10499024;28;19936;-69
2022/08/31 13:20:46;;;;;;;;;;;;;;;;;;10501077;28;19925;-69
2022/08/31 13:25:50;;;;;;;;;;;;;;;;;;10495711;28;19929;-69
2022/08/31 13:30:52;;;;;;;;;;;;;;;;;;10496661;28;19925;-68
2022/08/31 13:36:02;;;;;;;;;;;;;;;;;;10493602;28;19928;-70
2022/08/31 13:41:04;;;;;;;;;;;;;;;;;;10500826;28;19980;-70
2022/08/31 13:46:06;;;;;;;;;;;;;;;;;;10497895;28;19924;-69
2022/08/31 13:51:13;;;;;;;;;;;;;;;;;;10498643;28;19932;-68
2022/08/31 13:56:53;;;;;;;;;;;;;;;;;;10497700;28;20402;-67
2022/08/31 14:01:44;;;;;;;;;;;;;;;;;;10498376;28;19924;-67
2022/08/31 14:06:46;;;;;;;;;;;;;;;;;;10498369;28;19974;-67
2022/08/31 14:11:50;;;;;;;;;;;;;;;;;;10498255;28;19998;-67
2022/08/31 14:16:53;;;;;;;;;;;;;;;;;;10497536;28;20383;-67
2022/08/31 14:21:55;;;;;;;;;;;;;;;;;;10498592;28;19928;-67
2022/08/31 14:27:00;;;;;;;;;;;;;;;;;;10497303;28;20421;-67
2022/08/31 14:32:03;;;;;;;;;;;;;;;;;;10485930;28;19924;-67
2022/08/31 14:37:05;;;;;;;;;;;;;;;;;;10505597;28;19925;-67
2022/08/31 14:42:07;;;;;;;;;;;;;;;;;;10505331;28;19935;-67
2022/08/31 14:47:11;;;;;;;;;;;;;;;;;;10505064;28;19924;-67
2022/08/31 14:52:13;;;;;;;;;;;;;;;;;;10486745;28;20287;-67
2022/08/31 14:57:15;;;;;;;;;;;;;;;;;;10504201;28;20294;-67
2022/08/31 15:02:19;;;;;;;;;;;;;;;;;;10504590;28;19925;-67
2022/08/31 15:07:22;;;;;;;;;;;;;;;;;;10501827;28;19931;-68
2022/08/31 15:12:24;;;;;;;;;;;;;;;;;;10504312;28;19932;-68
2022/08/31 15:17:26;;;;;;;;;;;;;;;;;;10503460;28;20260;-68
2022/08/31 15:22:28;;;;;;;;;;;;;;;;;;10502254;28;20383;-68
2022/08/31 15:27:30;;;;;;;;;;;;;;;;;;10501860;28;19924;-68
2022/08/31 15:32:33;;;;;;;;;;;;;;;;;;10502848;28;20367;-68
2022/08/31 15:37:35;;;;;;;;;;;;;;;;;;10501627;28;19936;-67
2022/08/31 15:42:38;;;;;;;;;;;;;;;;;;10501805;28;19924;-67
2022/08/31 15:53:01;;;;;;;;;;;;;;;;;;10501940;28;19924;-67
2022/08/31 15:58:09;;;;;;;;;;;;;;;;;;10499228;28;19971;-67
2022/08/31 16:03:11;;;;;;;;;;;;;;;;;;10502269;28;19928;-67
2022/08/31 16:08:14;;;;;;;;;;;;;;;;;;10501488;28;20473;-67
2022/08/31 16:13:18;;;;;;;;;;;;;;;;;;10500504;28;19955;-67
2022/08/31 16:18:20;;;;;;;;;;;;;;;;;;10500687;28;19925;-67
2022/08/31 16:23:34;;;;;;;;;;;;;;;;;;10489211;28;19928;-66
2022/08/31 16:28:36;;;;;;;;;;;;;;;;;;10459194;28;20287;-67
2022/08/31 16:33:39;;;;;;;;;;;;;;;;;;10458255;28;19933;-67
2022/08/31 16:38:41;;;;;;;;;;;;;;;;;;10458860;28;20378;-67
2022/08/31 16:43:43;;;;;;;;;;;;;;;;;;10458600;28;19932;-66
2022/08/31 16:54:16;;;;;;;;;;;;;;;;;;10457998;28;19932;-66
2022/08/31 16:59:18;;;;;;;;;;;;;;;;;;10468820;22;19931;-66
2022/08/31 17:04:20;;;;;;;;;;;;;;;;;;10499174;28;20217;-66
2022/08/31 17:09:42;;;;;;;;;;;;;;;;;;10499084;28;19924;-65
2022/08/31 17:14:45;;;;;;;;;;;;;;;;;;10499588;28;19931;-65
2022/08/31 17:19:48;;;;;;;;;;;;;;;;;;10499472;28;19978;-66
2022/08/31 17:24:50;;;;;;;;;;;;;;;;;;10499194;28;19931;-65
2022/08/31 17:29:54;;;;;;;;;;;;;;;;;;10499189;28;19925;-65
2022/08/31 17:34:56;;;;;;;;;;;;;;;;;;10499068;28;19928;-65
2022/08/31 17:39:58;;;;;;;;;;;;;;;;;;10498342;28;20283;-65
2022/08/31 17:45:04;;;;;;;;;;;;;;;;;;10498551;28;19931;-65
2022/08/31 17:50:06;;;;;;;;;;;;;;;;;;10498248;28;20343;-65
2022/08/31 17:55:09;;;;;;;;;;;;;;;;;;10498646;28;19939;-65
2022/08/31 18:00:13;;;;;;;;;;;;;;;;;;10498689;28;19942;-65
2022/08/31 18:05:15;;;;;;;;;;;;;;;;;;10501870;28;20015;-65
2022/08/31 18:10:17;;;;;;;;;;;;;;;;;;10506208;28;19924;-65
2022/08/31 18:15:19;;;;;;;;;;;;;;;;;;10505970;28;19925;-65
2022/08/31 18:20:22;;;;;;;;;;;;;;;;;;10503916;28;20368;-65
2022/08/31 18:25:25;;;;;;;;;;;;;;;;;;10505317;28;19925;-65
2022/08/31 18:30:27;;;;;;;;;;;;;;;;;;10505403;28;20375;-65
2022/08/31 18:35:29;;;;;;;;;;;;;;;;;;10503309;28;19925;-65
2022/08/31 18:45:52;;;;;;;;;;;;;;;;;;10504755;28;20364;-65
2022/08/31 18:50:57;;;;;;;;;;;;;;;;;;10486760;28;19936;-64
2022/08/31 18:55:59;;;;;;;;;;;;;;;;;;10507178;28;19974;-65
2022/08/31 19:01:02;;;;;;;;;;;;;;;;;;10503879;28;19925;-64
2022/08/31 19:06:04;;;;;;;;;;;;;;;;;;10499669;28;20264;-64
2022/08/31 19:11:06;;;;;;;;;;;;;;;;;;10501561;28;19929;-64
2022/08/31 19:16:08;;;;;;;;;;;;;;;;;;10501527;28;19924;-64
2022/08/31 19:21:16;;;;;;;;;;;;;;;;;;10498830;28;20287;-64
2022/08/31 19:26:18;;;;;;;;;;;;;;;;;;10502173;28;19931;-64
2022/08/31 19:31:21;;;;;;;;;;;;;;;;;;10502426;28;19932;-64
2022/08/31 19:36:23;;;;;;;;;;;;;;;;;;10501063;28;20410;-64
2022/08/31 19:41:25;;;;;;;;;;;;;;;;;;10500365;28;20359;-65
2022/08/31 19:46:27;;;;;;;;;;;;;;;;;;10499011;28;20397;-64
2022/08/31 19:51:29;;;;;;;;;;;;;;;;;;10484103;28;19925;-64
2022/08/31 19:56:32;;;;;;;;;;;;;;;;;;10497784;28;19928;-64
2022/08/31 20:01:34;;;;;;;;;;;;;;;;;;10499756;28;19924;-64
2022/08/31 20:06:37;;;;;;;;;;;;;;;;;;10505284;28;19972;-64
2022/08/31 20:11:39;;;;;;;;;;;;;;;;;;10501614;28;19931;-64
2022/08/31 20:16:42;;;;;;;;;;;;;;;;;;10499326;28;20397;-64
2022/08/31 20:21:44;;;;;;;;;;;;;;;;;;10501660;28;19931;-64
2022/08/31 20:26:49;;;;;;;;;;;;;;;;;;10498766;28;19936;-64
2022/08/31 20:31:53;;;;;;;;;;;;;;;;;;10483123;28;20015;-64
2022/08/31 20:36:57;;;;;;;;;;;;;;;;;;10499779;28;19935;-63
2022/08/31 20:42:02;;;;;;;;;;;;;;;;;;10501912;28;19939;-63
2022/08/31 20:52:25;;;;;;;;;;;;;;;;;;10498400;28;19925;-64
2022/08/31 20:57:28;;;;;;;;;;;;;;;;;;10499647;28;20382;-63
2022/08/31 21:02:30;;;;;;;;;;;;;;;;;;10496914;28;19947;-63
2022/08/31 21:07:35;;;;;;;;;;;;;;;;;;10482545;28;19925;-64
2022/08/31 21:12:37;;;;;;;;;;;;;;;;;;10499714;28;19928;-64
2022/08/31 21:17:42;;;;;;;;;;;;;;;;;;10498656;28;19924;-64
2022/08/31 21:22:44;;;;;;;;;;;;;;;;;;10493872;28;20398;-64
2022/08/31 21:27:46;;;;;;;;;;;;;;;;;;10496248;28;19924;-64
2022/08/31 21:32:48;;;;;;;;;;;;;;;;;;10498850;28;19924;-64
2022/08/31 21:37:50;;;;;;;;;;;;;;;;;;10497849;28;19925;-63
2022/08/31 21:42:52;;;;;;;;;;;;;;;;;;10498226;28;19931;-64
2022/08/31 21:47:54;;;;;;;;;;;;;;;;;;10497161;28;19924;-64
2022/08/31 21:52:59;;;;;;;;;;;;;;;;;;10498765;28;19928;-64
2022/08/31 21:58:01;;;;;;;;;;;;;;;;;;10497907;28;19924;-64
2022/08/31 22:03:04;;;;;;;;;;;;;;;;;;10496703;28;19925;-64
2022/08/31 22:08:06;;;;;;;;;;;;;;;;;;10498923;28;19924;-63
2022/08/31 22:13:10;;;;;;;;;;;;;;;;;;10497413;28;19924;-63
2022/08/31 22:18:12;;;;;;;;;;;;;;;;;;10497522;28;20019;-63
2022/08/31 22:23:34;;;;;;;;;;;;;;;;;;10496303;28;19924;-63
2022/08/31 22:28:36;;;;;;;;;;;;;;;;;;10497639;28;19936;-63
2022/08/31 22:33:38;;;;;;;;;;;;;;;;;;10497001;28;19924;-63
2022/08/31 22:38:40;;;;;;;;;;;;;;;;;;10497754;28;20291;-63
2022/08/31 22:43:43;;;;;;;;;;;;;;;;;;10495086;28;20275;-63
2022/08/31 22:48:45;;;;;;;;;;;;;;;;;;10497527;28;19924;-63
2022/08/31 22:53:50;;;;;;;;;;;;;;;;;;10484521;28;20410;-63
2022/08/31 22:58:52;;;;;;;;;;;;;;;;;;10503402;28;20361;-63
2022/08/31 23:03:55;;;;;;;;;;;;;;;;;;10503109;28;19924;-63
2022/08/31 23:08:58;;;;;;;;;;;;;;;;;;10503201;28;19935;-63
2022/08/31 23:14:00;;;;;;;;;;;;;;;;;;10503424;28;19930;-63
2022/08/31 23:19:11;;;;;;;;;;;;;;;;;;10502609;28;19933;-63
2022/08/31 23:24:13;;;;;;;;;;;;;;;;;;10502970;28;19946;-63
2022/08/31 23:29:20;;;;;;;;;;;;;;;;;;10503235;28;19932;-63
2022/08/31 23:34:23;;;;;;;;;;;;;;;;;;10502915;28;19924;-63
2022/08/31 23:39:25;;;;;;;;;;;;;;;;;;10500286;28;19932;-63
2022/08/31 23:44:27;;;;;;;;;;;;;;;;;;10502551;28;19936;-63
2022/08/31 23:49:29;;;;;;;;;;;;;;;;;;10503042;28;19925;-63
2022/08/31 23:54:34;;;;;;;;;;;;;;;;;;10501609;28;20272;-63
2022/08/31 23:59:38;;;;;;;;;;;;;;;;;;10501282;28;19931;-63
